Station History

Weather Underground - logo

Station Historical Data
Daily Summary for February 23, 2018 Units:  Both    English   Metric
« Previous Day
Next Day »
Daily Weekly Monthly Yearly Custom
  High: Low: Average:
Temperature: 53.2 °F /  11.8 °C 33.4 °F /  0.8 °C 43.5 °F /  6.4 °C
Dew Point: 38.9 °F /  3.8 °C 25.4 °F /  -3.7 °C 33 °F /  0.6 °C
Humidity: 95 % 35 % 70 %
Wind Speed: 13.8 mph /  22.2 km/h - 1.9 mph /  3.1 km/h
Wind Gust: 13.8 mph /  22.2 km/h - -
Wind:- - NW
Pressure: 30.41 in /  1029.7 hPa 30.22 in /  1023.2 hPa -
Precipitation: 0.01 in /  0.25 mm    
Historical Graphs
 
 
Tabular Data for February 23, 2018
Time Temperature Dew Point Pressure Wind Wind Speed Wind Gust Humidity Rainfall Rate (Hourly)
00:03 42.9 °F /  6.1 °C 38.7 °F /  3.7 °C 30.22 in /  1023.2 hPa NW 1.2 mph /  1.9 km/h   85 % 0.00 in /  0 mm
00:08 42.8 °F /  6 °C 38.9 °F /  3.8 °C 30.22 in /  1023.2 hPa NW 2.3 mph /  3.7 km/h 2.3 mph /  3.7 km/h 86 % 0.00 in /  0 mm
00:13 42.5 °F /  5.8 °C 38.6 °F /  3.7 °C 30.23 in /  1023.6 hPa NW 3.5 mph /  5.6 km/h 3.5 mph /  5.6 km/h 86 % 0.00 in /  0 mm
00:18 42.4 °F /  5.8 °C 38.2 °F /  3.4 °C 30.23 in /  1023.6 hPa WNW 3.5 mph /  5.6 km/h 3.5 mph /  5.6 km/h 85 % 0.00 in /  0 mm
00:24 42.3 °F /  5.7 °C 37.8 °F /  3.2 °C 30.23 in /  1023.6 hPa NW 3.5 mph /  5.6 km/h 3.5 mph /  5.6 km/h 84 % 0.00 in /  0 mm
00:29 42.0 °F /  5.6 °C 37.5 °F /  3.1 °C 30.23 in /  1023.6 hPa NW 2.3 mph /  3.7 km/h 2.3 mph /  3.7 km/h 84 % 0.00 in /  0 mm
00:34 41.7 °F /  5.4 °C 37.2 °F /  2.9 °C 30.23 in /  1023.6 hPa WNW 1.2 mph /  1.9 km/h 1.2 mph /  1.9 km/h 84 % 0.00 in /  0 mm
00:39 41.6 °F /  5.3 °C 37.4 °F /  3 °C 30.23 in /  1023.6 hPa NW 1.2 mph /  1.9 km/h 1.2 mph /  1.9 km/h 85 % 0.00 in /  0 mm
00:44 41.5 °F /  5.3 °C 37.3 °F /  2.9 °C 30.22 in /  1023.2 hPa WNW 2.3 mph /  3.7 km/h   85 % 0.00 in /  0 mm
00:49 41.5 °F /  5.3 °C 37.3 °F /  2.9 °C 30.23 in /  1023.6 hPa WNW 2.3 mph /  3.7 km/h 2.3 mph /  3.7 km/h 85 % 0.00 in /  0 mm
00:54 41.8 °F /  5.4 °C 37.3 °F /  2.9 °C 30.23 in /  1023.6 hPa NW 2.3 mph /  3.7 km/h 2.3 mph /  3.7 km/h 84 % 0.00 in /  0 mm
00:59 42.2 °F /  5.7 °C 37.4 °F /  3 °C 30.23 in /  1023.6 hPa NW 1.2 mph /  1.9 km/h   83 % 0.00 in /  0 mm
01:04 42.3 °F /  5.7 °C 37.5 °F /  3.1 °C 30.23 in /  1023.6 hPa West 1.2 mph /  1.9 km/h   83 % 0.00 in /  0 mm
01:09 42.3 °F /  5.7 °C 37.2 °F /  2.9 °C 30.23 in /  1023.6 hPa West 1.2 mph /  1.9 km/h   82 % 0.00 in /  0 mm
01:14 42.2 °F /  5.7 °C 37.4 °F /  3 °C 30.23 in /  1023.6 hPa West 1.2 mph /  1.9 km/h   83 % 0.00 in /  0 mm
01:19 42.1 °F /  5.6 °C 37.3 °F /  2.9 °C 30.23 in /  1023.6 hPa Calm     83 % 0.00 in /  0 mm
01:24 42.0 °F /  5.6 °C 37.2 °F /  2.9 °C 30.23 in /  1023.6 hPa Calm     83 % 0.00 in /  0 mm
01:29 41.8 °F /  5.4 °C 37.3 °F /  2.9 °C 30.23 in /  1023.6 hPa Calm     84 % 0.00 in /  0 mm
01:34 41.7 °F /  5.4 °C 37.2 °F /  2.9 °C 30.23 in /  1023.6 hPa Calm     84 % 0.00 in /  0 mm
01:39 41.5 °F /  5.3 °C 37.3 °F /  2.9 °C 30.23 in /  1023.6 hPa Calm     85 % 0.00 in /  0 mm
01:44 41.3 °F /  5.2 °C 37.1 °F /  2.8 °C 30.23 in /  1023.6 hPa Calm     85 % 0.00 in /  0 mm
01:49 41.3 °F /  5.2 °C 37.4 °F /  3 °C 30.22 in /  1023.2 hPa Calm     86 % 0.00 in /  0 mm
01:54 41.3 °F /  5.2 °C 37.4 °F /  3 °C 30.23 in /  1023.6 hPa Calm     86 % 0.00 in /  0 mm
01:59 41.3 °F /  5.2 °C 37.4 °F /  3 °C 30.23 in /  1023.6 hPa Calm     86 % 0.00 in /  0 mm
02:04 41.3 °F /  5.2 °C 37.4 °F /  3 °C 30.23 in /  1023.6 hPa Calm     86 % 0.00 in /  0 mm
02:09 41.4 °F /  5.2 °C 37.5 °F /  3.1 °C 30.23 in /  1023.6 hPa Calm     86 % 0.00 in /  0 mm
02:14 41.5 °F /  5.3 °C 37.3 °F /  2.9 °C 30.23 in /  1023.6 hPa Calm     85 % 0.00 in /  0 mm
02:19 41.6 °F /  5.3 °C 37.4 °F /  3 °C 30.23 in /  1023.6 hPa Calm     85 % 0.00 in /  0 mm
02:24 41.5 °F /  5.3 °C 37.0 °F /  2.8 °C 30.23 in /  1023.6 hPa Calm     84 % 0.00 in /  0 mm
02:29 41.5 °F /  5.3 °C 37.0 °F /  2.8 °C 30.23 in /  1023.6 hPa West 1.2 mph /  1.9 km/h   84 % 0.00 in /  0 mm
02:34 41.4 °F /  5.2 °C 36.6 °F /  2.6 °C 30.23 in /  1023.6 hPa Calm     83 % 0.00 in /  0 mm
02:39 41.3 °F /  5.2 °C 36.5 °F /  2.5 °C 30.23 in /  1023.6 hPa Calm     83 % 0.00 in /  0 mm
02:44 40.9 °F /  4.9 °C 36.1 °F /  2.3 °C 30.23 in /  1023.6 hPa Calm   0.1 mph /  0.2 km/h 83 % 0.00 in /  0 mm
02:49 40.2 °F /  4.6 °C 35.8 °F /  2.1 °C 30.23 in /  1023.6 hPa Calm     84 % 0.00 in /  0 mm
02:54 39.7 °F /  4.3 °C 35.6 °F /  2 °C 30.23 in /  1023.6 hPa Calm     85 % 0.00 in /  0 mm
02:59 39.4 °F /  4.1 °C 35.6 °F /  2 °C 30.23 in /  1023.6 hPa West 1.2 mph /  1.9 km/h 1.2 mph /  1.9 km/h 86 % 0.00 in /  0 mm
03:04 39.2 °F /  4 °C 35.4 °F /  1.9 °C 30.23 in /  1023.6 hPa Calm     86 % 0.00 in /  0 mm
03:09 38.9 °F /  3.8 °C 35.4 °F /  1.9 °C 30.23 in /  1023.6 hPa Calm     87 % 0.00 in /  0 mm
03:15 38.7 °F /  3.7 °C 35.5 °F /  1.9 °C 30.23 in /  1023.6 hPa West 1.2 mph /  1.9 km/h   88 % 0.00 in /  0 mm
03:20 38.6 °F /  3.7 °C 35.4 °F /  1.9 °C 30.23 in /  1023.6 hPa Calm     88 % 0.00 in /  0 mm
03:25 38.5 °F /  3.6 °C 35.3 °F /  1.8 °C 30.23 in /  1023.6 hPa West 1.2 mph /  1.9 km/h 1.2 mph /  1.9 km/h 88 % 0.00 in /  0 mm
03:30 38.6 °F /  3.7 °C 35.4 °F /  1.9 °C 30.23 in /  1023.6 hPa West 1.2 mph /  1.9 km/h   88 % 0.00 in /  0 mm
03:35 38.6 °F /  3.7 °C 35.4 °F /  1.9 °C 30.23 in /  1023.6 hPa NW 1.2 mph /  1.9 km/h 1.2 mph /  1.9 km/h 88 % 0.00 in /  0 mm
03:40 38.5 °F /  3.6 °C 35.3 °F /  1.8 °C 30.23 in /  1023.6 hPa NW 1.2 mph /  1.9 km/h 1.2 mph /  1.9 km/h 88 % 0.00 in /  0 mm
03:45 38.4 °F /  3.6 °C 35.2 °F /  1.8 °C 30.24 in /  1023.9 hPa NW 1.2 mph /  1.9 km/h 1.2 mph /  1.9 km/h 88 % 0.00 in /  0 mm
03:50 38.4 °F /  3.6 °C 35.4 °F /  1.9 °C 30.24 in /  1023.9 hPa NW 1.2 mph /  1.9 km/h 1.2 mph /  1.9 km/h 89 % 0.00 in /  0 mm
03:55 38.5 °F /  3.6 °C 35.5 °F /  1.9 °C 30.24 in /  1023.9 hPa NW 1.2 mph /  1.9 km/h 1.2 mph /  1.9 km/h 89 % 0.00 in /  0 mm
04:00 38.6 °F /  3.7 °C 35.6 °F /  2 °C 30.24 in /  1023.9 hPa Calm     89 % 0.00 in /  0 mm
04:05 38.7 °F /  3.7 °C 35.7 °F /  2.1 °C 30.24 in /  1023.9 hPa Calm     89 % 0.00 in /  0 mm
04:10 38.9 °F /  3.8 °C 35.6 °F /  2 °C 30.24 in /  1023.9 hPa Calm     88 % 0.00 in /  0 mm
04:15 39.0 °F /  3.9 °C 35.7 °F /  2.1 °C 30.24 in /  1023.9 hPa Calm     88 % 0.00 in /  0 mm
04:20 39.1 °F /  3.9 °C 35.8 °F /  2.1 °C 30.25 in /  1024.3 hPa Calm     88 % 0.00 in /  0 mm
04:25 39.1 °F /  3.9 °C 35.8 °F /  2.1 °C 30.25 in /  1024.3 hPa Calm     88 % 0.00 in /  0 mm
04:30 39.0 °F /  3.9 °C 35.7 °F /  2.1 °C 30.25 in /  1024.3 hPa Calm     88 % 0.00 in /  0 mm
04:35 38.7 °F /  3.7 °C 35.5 °F /  1.9 °C 30.25 in /  1024.3 hPa Calm     88 % 0.00 in /  0 mm
04:40 38.2 °F /  3.4 °C 35.0 °F /  1.7 °C 30.25 in /  1024.3 hPa Calm     88 % 0.00 in /  0 mm
04:45 37.9 °F /  3.3 °C 34.9 °F /  1.6 °C 30.25 in /  1024.3 hPa Calm     89 % 0.00 in /  0 mm
04:50 37.8 °F /  3.2 °C 35.1 °F /  1.7 °C 30.25 in /  1024.3 hPa Calm     90 % 0.00 in /  0 mm
04:55 37.5 °F /  3.1 °C 34.6 °F /  1.4 °C 30.25 in /  1024.3 hPa Calm     89 % 0.00 in /  0 mm
05:00 37.2 °F /  2.9 °C 34.5 °F /  1.4 °C 30.26 in /  1024.6 hPa Calm     90 % 0.00 in /  0 mm
05:05 37.0 °F /  2.8 °C 34.3 °F /  1.3 °C 30.25 in /  1024.3 hPa Calm     90 % 0.00 in /  0 mm
05:10 36.8 °F /  2.7 °C 34.1 °F /  1.2 °C 30.25 in /  1024.3 hPa Calm     90 % 0.00 in /  0 mm
05:15 36.5 °F /  2.5 °C 33.8 °F /  1 °C 30.25 in /  1024.3 hPa Calm     90 % 0.00 in /  0 mm
05:20 36.3 °F /  2.4 °C 33.9 °F /  1.1 °C 30.25 in /  1024.3 hPa Calm     91 % 0.00 in /  0 mm
05:25 36.2 °F /  2.3 °C 33.8 °F /  1 °C 30.26 in /  1024.6 hPa Calm     91 % 0.00 in /  0 mm
05:30 36.1 °F /  2.3 °C 33.7 °F /  0.9 °C 30.26 in /  1024.6 hPa Calm     91 % 0.00 in /  0 mm
05:35 35.9 °F /  2.2 °C 33.5 °F /  0.8 °C 30.26 in /  1024.6 hPa Calm     91 % 0.00 in /  0 mm
05:40 35.7 °F /  2.1 °C 33.3 °F /  0.7 °C 30.26 in /  1024.6 hPa Calm     91 % 0.00 in /  0 mm
05:45 35.5 °F /  1.9 °C 33.4 °F /  0.8 °C 30.26 in /  1024.6 hPa Calm     92 % 0.00 in /  0 mm
05:50 35.6 °F /  2 °C 33.5 °F /  0.8 °C 30.27 in /  1024.9 hPa Calm     92 % 0.00 in /  0 mm
05:55 35.4 °F /  1.9 °C 33.3 °F /  0.7 °C 30.27 in /  1024.9 hPa Calm     92 % 0.00 in /  0 mm
06:00 35.3 °F /  1.8 °C 33.2 °F /  0.7 °C 30.27 in /  1024.9 hPa Calm     92 % 0.00 in /  0 mm
06:05 35.0 °F /  1.7 °C 32.9 °F /  0.5 °C 30.27 in /  1024.9 hPa Calm     92 % 0.00 in /  0 mm
06:10 34.9 °F /  1.6 °C 32.8 °F /  0.4 °C 30.27 in /  1024.9 hPa Calm     92 % 0.00 in /  0 mm
06:15 34.9 °F /  1.6 °C 33.1 °F /  0.6 °C 30.27 in /  1024.9 hPa Calm     93 % 0.00 in /  0 mm
06:20 35.0 °F /  1.7 °C 33.2 °F /  0.7 °C 30.27 in /  1024.9 hPa Calm     93 % 0.00 in /  0 mm
06:25 35.0 °F /  1.7 °C 33.2 °F /  0.7 °C 30.27 in /  1024.9 hPa Calm     93 % 0.00 in /  0 mm
06:30 35.0 °F /  1.7 °C 33.2 °F /  0.7 °C 30.28 in /  1025.3 hPa Calm     93 % 0.00 in /  0 mm
06:35 34.9 °F /  1.6 °C 33.1 °F /  0.6 °C 30.28 in /  1025.3 hPa Calm     93 % 0.00 in /  0 mm
06:40 34.8 °F /  1.6 °C 33.0 °F /  0.6 °C 30.28 in /  1025.3 hPa Calm     93 % 0.00 in /  0 mm
06:45 34.8 °F /  1.6 °C 33.0 °F /  0.6 °C 30.29 in /  1025.6 hPa Calm     93 % 0.00 in /  0 mm
06:50 34.5 °F /  1.4 °C 32.7 °F /  0.4 °C 30.28 in /  1025.3 hPa Calm     93 % 0.00 in /  0 mm
06:55 34.3 °F /  1.3 °C 32.5 °F /  0.3 °C 30.29 in /  1025.6 hPa Calm     93 % 0.00 in /  0 mm
07:00 34.2 °F /  1.2 °C 32.4 °F /  0.2 °C 30.29 in /  1025.6 hPa Calm     93 % 0.01 in /  0.25 mm
07:06 34.2 °F /  1.2 °C 32.4 °F /  0.2 °C 30.30 in /  1026 hPa Calm     93 % 0.01 in /  0.25 mm
07:11 34.5 °F /  1.4 °C 33.0 °F /  0.6 °C 30.30 in /  1026 hPa Calm     94 % 0.01 in /  0.25 mm
07:15 34.9 °F /  1.6 °C 33.3 °F /  0.7 °C 30.30 in /  1026 hPa Calm     94 % 0.01 in /  0.25 mm
07:20 35.3 °F /  1.8 °C 33.7 °F /  0.9 °C 30.30 in /  1026 hPa Calm     94 % 0.01 in /  0.25 mm
07:26 35.9 °F /  2.2 °C 34.6 °F /  1.4 °C 30.30 in /  1026 hPa Calm     95 % 0.01 in /  0.25 mm
07:31 36.1 °F /  2.3 °C 34.8 °F /  1.6 °C 30.30 in /  1026 hPa Calm     95 % 0.01 in /  0.25 mm
07:36 36.6 °F /  2.6 °C 35.3 °F /  1.8 °C 30.31 in /  1026.3 hPa Calm     95 % 0.01 in /  0.25 mm
07:41 37.3 °F /  2.9 °C 36.0 °F /  2.2 °C 30.31 in /  1026.3 hPa Calm     95 % 0.01 in /  0.25 mm
07:46 38.0 °F /  3.3 °C 36.4 °F /  2.4 °C 30.31 in /  1026.3 hPa Calm     94 % 0.01 in /  0.25 mm
07:51 38.8 °F /  3.8 °C 36.7 °F /  2.6 °C 30.31 in /  1026.3 hPa Calm     92 % 0.01 in /  0.25 mm
07:56 39.3 °F /  4.1 °C 36.6 °F /  2.6 °C 30.32 in /  1026.6 hPa WNW 1.2 mph /  1.9 km/h 1.2 mph /  1.9 km/h 90 % 0.00 in /  0 mm
08:01 39.8 °F /  4.3 °C 36.8 °F /  2.7 °C 30.32 in /  1026.6 hPa WNW 1.2 mph /  1.9 km/h   89 % 0.00 in /  0 mm
08:06 40.3 °F /  4.6 °C 37.0 °F /  2.8 °C 30.32 in /  1026.6 hPa WNW 1.2 mph /  1.9 km/h 1.2 mph /  1.9 km/h 88 % 0.00 in /  0 mm
08:11 40.6 °F /  4.8 °C 36.7 °F /  2.6 °C 30.32 in /  1026.6 hPa NW 3.5 mph /  5.6 km/h 3.5 mph /  5.6 km/h 86 % 0.00 in /  0 mm
08:16 40.8 °F /  4.9 °C 36.6 °F /  2.6 °C 30.32 in /  1026.6 hPa NNW 3.5 mph /  5.6 km/h 3.5 mph /  5.6 km/h 85 % 0.00 in /  0 mm
08:21 41.2 °F /  5.1 °C 37.0 °F /  2.8 °C 30.32 in /  1026.6 hPa NNW 1.2 mph /  1.9 km/h 1.2 mph /  1.9 km/h 85 % 0.00 in /  0 mm
08:26 41.5 °F /  5.3 °C 36.7 °F /  2.6 °C 30.32 in /  1026.6 hPa East 4.6 mph /  7.4 km/h 4.6 mph /  7.4 km/h 83 % 0.00 in /  0 mm
08:31 41.7 °F /  5.4 °C 36.6 °F /  2.6 °C 30.32 in /  1026.6 hPa NW 3.5 mph /  5.6 km/h 3.5 mph /  5.6 km/h 82 % 0.00 in /  0 mm
08:36 42.0 °F /  5.6 °C 36.9 °F /  2.7 °C 30.32 in /  1026.6 hPa NW 3.5 mph /  5.6 km/h 3.5 mph /  5.6 km/h 82 % 0.00 in /  0 mm
08:41 42.2 °F /  5.7 °C 36.8 °F /  2.7 °C 30.33 in /  1027 hPa WNW 3.5 mph /  5.6 km/h 3.5 mph /  5.6 km/h 81 % 0.00 in /  0 mm
08:46 42.4 °F /  5.8 °C 37.0 °F /  2.8 °C 30.33 in /  1027 hPa NW 3.5 mph /  5.6 km/h 3.5 mph /  5.6 km/h 81 % 0.00 in /  0 mm
08:51 42.7 °F /  5.9 °C 37.3 °F /  2.9 °C 30.33 in /  1027 hPa NW 3.5 mph /  5.6 km/h 3.5 mph /  5.6 km/h 81 % 0.00 in /  0 mm
08:56 43.0 °F /  6.1 °C 37.3 °F /  2.9 °C 30.33 in /  1027 hPa NW 2.3 mph /  3.7 km/h 2.3 mph /  3.7 km/h 80 % 0.00 in /  0 mm
09:01 43.4 °F /  6.3 °C 37.3 °F /  2.9 °C 30.33 in /  1027 hPa WNW 3.5 mph /  5.6 km/h 3.5 mph /  5.6 km/h 79 % 0.00 in /  0 mm
09:06 43.7 °F /  6.5 °C 37.6 °F /  3.1 °C 30.34 in /  1027.3 hPa NNW 2.3 mph /  3.7 km/h 2.3 mph /  3.7 km/h 79 % 0.00 in /  0 mm
09:11 43.9 °F /  6.6 °C 37.2 °F /  2.9 °C 30.34 in /  1027.3 hPa NW 3.5 mph /  5.6 km/h 3.5 mph /  5.6 km/h 77 % 0.00 in /  0 mm
09:16 44.1 °F /  6.7 °C 37.7 °F /  3.2 °C 30.34 in /  1027.3 hPa NW 3.0 mph /  4.8 km/h 3.0 mph /  4.8 km/h 78 % 0.00 in /  0 mm
09:21 44.4 °F /  6.9 °C 37.6 °F /  3.1 °C 30.34 in /  1027.3 hPa West 2.0 mph /  3.2 km/h 2.0 mph /  3.2 km/h 77 % 0.00 in /  0 mm
09:26 44.5 °F /  6.9 °C 37.4 °F /  3 °C 30.34 in /  1027.3 hPa NE 3.5 mph /  5.6 km/h 3.5 mph /  5.6 km/h 76 % 0.00 in /  0 mm
09:31 44.8 °F /  7.1 °C 37.7 °F /  3.2 °C 30.34 in /  1027.3 hPa NNW 2.3 mph /  3.7 km/h 2.3 mph /  3.7 km/h 76 % 0.00 in /  0 mm
09:36 44.9 °F /  7.2 °C 37.5 °F /  3.1 °C 30.34 in /  1027.3 hPa NW 4.0 mph /  6.4 km/h 4.0 mph /  6.4 km/h 75 % 0.00 in /  0 mm
09:41 45.2 °F /  7.3 °C 38.1 °F /  3.4 °C 30.34 in /  1027.3 hPa NNW 3.5 mph /  5.6 km/h 3.5 mph /  5.6 km/h 76 % 0.00 in /  0 mm
09:46 45.3 °F /  7.4 °C 38.2 °F /  3.4 °C 30.35 in /  1027.7 hPa North 3.5 mph /  5.6 km/h 3.5 mph /  5.6 km/h 76 % 0.00 in /  0 mm
09:51 45.3 °F /  7.4 °C 37.5 °F /  3.1 °C 30.35 in /  1027.7 hPa NNW 4.6 mph /  7.4 km/h 4.6 mph /  7.4 km/h 74 % 0.00 in /  0 mm
09:56 45.3 °F /  7.4 °C 37.5 °F /  3.1 °C 30.35 in /  1027.7 hPa NNW 9.2 mph /  14.8 km/h 9.2 mph /  14.8 km/h 74 % 0.00 in /  0 mm
10:01 45.2 °F /  7.3 °C 37.1 °F /  2.8 °C 30.35 in /  1027.7 hPa NNW 4.6 mph /  7.4 km/h 4.6 mph /  7.4 km/h 73 % 0.00 in /  0 mm
10:06 45.5 °F /  7.5 °C 37.7 °F /  3.2 °C 30.35 in /  1027.7 hPa NW 3.5 mph /  5.6 km/h 3.5 mph /  5.6 km/h 74 % 0.00 in /  0 mm
10:11 46.0 °F /  7.8 °C 38.5 °F /  3.6 °C 30.35 in /  1027.7 hPa NNW 3.5 mph /  5.6 km/h 3.5 mph /  5.6 km/h 75 % 0.00 in /  0 mm
10:16 46.1 °F /  7.8 °C 37.9 °F /  3.3 °C 30.35 in /  1027.7 hPa WNW 5.8 mph /  9.3 km/h 5.8 mph /  9.3 km/h 73 % 0.00 in /  0 mm
10:21 45.8 °F /  7.7 °C 38.0 °F /  3.3 °C 30.35 in /  1027.7 hPa WNW 3.5 mph /  5.6 km/h 3.5 mph /  5.6 km/h 74 % 0.00 in /  0 mm
10:26 46.1 °F /  7.8 °C 37.9 °F /  3.3 °C 30.35 in /  1027.7 hPa West 3.5 mph /  5.6 km/h 3.5 mph /  5.6 km/h 73 % 0.00 in /  0 mm
10:31 46.6 °F /  8.1 °C 37.7 °F /  3.2 °C 30.35 in /  1027.7 hPa NW 3.5 mph /  5.6 km/h 3.5 mph /  5.6 km/h 71 % 0.00 in /  0 mm
10:36 46.5 °F /  8.1 °C 38.0 °F /  3.3 °C 30.35 in /  1027.7 hPa NNW 3.0 mph /  4.8 km/h 3.0 mph /  4.8 km/h 72 % 0.00 in /  0 mm
10:41 47.0 °F /  8.3 °C 38.4 °F /  3.6 °C 30.35 in /  1027.7 hPa WNW 4.6 mph /  7.4 km/h 4.6 mph /  7.4 km/h 72 % 0.00 in /  0 mm
10:46 47.0 °F /  8.3 °C 37.7 °F /  3.2 °C 30.35 in /  1027.7 hPa WSW 2.3 mph /  3.7 km/h 2.3 mph /  3.7 km/h 70 % 0.00 in /  0 mm
10:51 47.4 °F /  8.6 °C 38.1 °F /  3.4 °C 30.35 in /  1027.7 hPa WNW 1.2 mph /  1.9 km/h 1.2 mph /  1.9 km/h 70 % 0.00 in /  0 mm
10:52 47.5 °F /  8.6 °C 37.8 °F /  3.2 °C 30.35 in /  1027.7 hPa WNW 1.2 mph /  1.9 km/h 1.2 mph /  1.9 km/h 69 % 0.00 in /  0 mm
10:57 47.8 °F /  8.8 °C 37.7 °F /  3.2 °C 30.35 in /  1027.7 hPa NNW 4.6 mph /  7.4 km/h 4.6 mph /  7.4 km/h 68 % 0.00 in /  0 mm
11:02 47.6 °F /  8.7 °C 37.6 °F /  3.1 °C 30.35 in /  1027.7 hPa NNW 1.2 mph /  1.9 km/h 1.2 mph /  1.9 km/h 68 % 0.00 in /  0 mm
11:07 48.2 °F /  9 °C 37.4 °F /  3 °C 30.35 in /  1027.7 hPa WNW 4.0 mph /  6.4 km/h 4.0 mph /  6.4 km/h 66 % 0.00 in /  0 mm
11:12 48.3 °F /  9.1 °C 36.7 °F /  2.6 °C 30.35 in /  1027.7 hPa NNW 2.3 mph /  3.7 km/h 2.3 mph /  3.7 km/h 64 % 0.00 in /  0 mm
11:17 48.6 °F /  9.2 °C 37.0 °F /  2.8 °C 30.34 in /  1027.3 hPa WNW 3.5 mph /  5.6 km/h 3.5 mph /  5.6 km/h 64 % 0.00 in /  0 mm
11:22 48.2 °F /  9 °C 35.8 °F /  2.1 °C 30.34 in /  1027.3 hPa NNW 4.6 mph /  7.4 km/h 4.6 mph /  7.4 km/h 62 % 0.00 in /  0 mm
11:27 48.4 °F /  9.1 °C 36.8 °F /  2.7 °C 30.34 in /  1027.3 hPa NW 5.0 mph /  8 km/h 5.0 mph /  8 km/h 64 % 0.00 in /  0 mm
11:32 48.9 °F /  9.4 °C 36.0 °F /  2.2 °C 30.34 in /  1027.3 hPa NW 3.5 mph /  5.6 km/h 3.5 mph /  5.6 km/h 61 % 0.00 in /  0 mm
11:37 49.1 °F /  9.5 °C 36.2 °F /  2.3 °C 30.34 in /  1027.3 hPa NW 2.3 mph /  3.7 km/h 2.3 mph /  3.7 km/h 61 % 0.00 in /  0 mm
11:42 49.8 °F /  9.9 °C 36.9 °F /  2.7 °C 30.33 in /  1027 hPa NW 4.0 mph /  6.4 km/h 4.0 mph /  6.4 km/h 61 % 0.00 in /  0 mm
11:47 49.8 °F /  9.9 °C 36.0 °F /  2.2 °C 30.33 in /  1027 hPa WNW 4.0 mph /  6.4 km/h 4.0 mph /  6.4 km/h 59 % 0.00 in /  0 mm
11:52 50.1 °F /  10.1 °C 36.3 °F /  2.4 °C 30.33 in /  1027 hPa NNW 3.5 mph /  5.6 km/h 3.5 mph /  5.6 km/h 59 % 0.00 in /  0 mm
11:57 50.6 °F /  10.3 °C 36.8 °F /  2.7 °C 30.33 in /  1027 hPa NW 3.5 mph /  5.6 km/h 3.5 mph /  5.6 km/h 59 % 0.00 in /  0 mm
12:02 50.5 °F /  10.3 °C 35.8 °F /  2.1 °C 30.33 in /  1027 hPa NW 3.5 mph /  5.6 km/h 3.5 mph /  5.6 km/h 57 % 0.00 in /  0 mm
12:07 50.7 °F /  10.4 °C 36.0 °F /  2.2 °C 30.33 in /  1027 hPa NW 5.8 mph /  9.3 km/h 5.8 mph /  9.3 km/h 57 % 0.00 in /  0 mm
12:12 50.9 °F /  10.5 °C 35.7 °F /  2.1 °C 30.33 in /  1027 hPa WNW 4.6 mph /  7.4 km/h 4.6 mph /  7.4 km/h 56 % 0.00 in /  0 mm
12:17 51.1 °F /  10.6 °C 35.5 °F /  1.9 °C 30.33 in /  1027 hPa WNW 6.9 mph /  11.1 km/h 6.9 mph /  11.1 km/h 55 % 0.00 in /  0 mm
12:22 51.1 °F /  10.6 °C 35.5 °F /  1.9 °C 30.33 in /  1027 hPa NW 5.8 mph /  9.3 km/h 5.8 mph /  9.3 km/h 55 % 0.00 in /  0 mm
12:27 50.7 °F /  10.4 °C 35.1 °F /  1.7 °C 30.33 in /  1027 hPa NNW 3.5 mph /  5.6 km/h 3.5 mph /  5.6 km/h 55 % 0.00 in /  0 mm
12:32 51.0 °F /  10.6 °C 35.4 °F /  1.9 °C 30.33 in /  1027 hPa NW 9.2 mph /  14.8 km/h 9.2 mph /  14.8 km/h 55 % 0.00 in /  0 mm
12:37 50.5 °F /  10.3 °C 35.4 °F /  1.9 °C 30.33 in /  1027 hPa NNW 3.5 mph /  5.6 km/h 3.5 mph /  5.6 km/h 56 % 0.00 in /  0 mm
12:42 50.7 °F /  10.4 °C 35.1 °F /  1.7 °C 30.32 in /  1026.6 hPa WNW 2.3 mph /  3.7 km/h 2.3 mph /  3.7 km/h 55 % 0.00 in /  0 mm
12:47 51.7 °F /  10.9 °C 36.0 °F /  2.2 °C 30.32 in /  1026.6 hPa NW 5.8 mph /  9.3 km/h 5.8 mph /  9.3 km/h 55 % 0.00 in /  0 mm
12:52 51.8 °F /  11 °C 35.2 °F /  1.8 °C 30.32 in /  1026.6 hPa NNW 2.3 mph /  3.7 km/h 2.3 mph /  3.7 km/h 53 % 0.00 in /  0 mm
12:57 51.6 °F /  10.9 °C 35.9 °F /  2.2 °C 30.32 in /  1026.6 hPa NW 4.6 mph /  7.4 km/h 4.6 mph /  7.4 km/h 55 % 0.00 in /  0 mm
13:03 51.5 °F /  10.8 °C 34.9 °F /  1.6 °C 30.31 in /  1026.3 hPa NW 5.0 mph /  8 km/h 5.0 mph /  8 km/h 53 % 0.00 in /  0 mm
13:08 51.5 °F /  10.8 °C 34.0 °F /  1.1 °C 30.31 in /  1026.3 hPa NW 4.6 mph /  7.4 km/h 4.6 mph /  7.4 km/h 51 % 0.00 in /  0 mm
13:13 52.1 °F /  11.2 °C 34.5 °F /  1.4 °C 30.31 in /  1026.3 hPa WNW 9.2 mph /  14.8 km/h 9.2 mph /  14.8 km/h 51 % 0.00 in /  0 mm
13:18 52.0 °F /  11.1 °C 33.4 °F /  0.8 °C 30.32 in /  1026.6 hPa NW 5.8 mph /  9.3 km/h 5.8 mph /  9.3 km/h 49 % 0.00 in /  0 mm
13:23 51.9 °F /  11.1 °C 34.8 °F /  1.6 °C 30.31 in /  1026.3 hPa WNW 4.0 mph /  6.4 km/h 4.0 mph /  6.4 km/h 52 % 0.00 in /  0 mm
13:28 52.1 °F /  11.2 °C 33.5 °F /  0.8 °C 30.31 in /  1026.3 hPa NW 5.8 mph /  9.3 km/h 5.8 mph /  9.3 km/h 49 % 0.00 in /  0 mm
13:33 52.4 °F /  11.3 °C 33.8 °F /  1 °C 30.31 in /  1026.3 hPa WNW 4.6 mph /  7.4 km/h 4.6 mph /  7.4 km/h 49 % 0.00 in /  0 mm
13:38 52.2 °F /  11.2 °C 33.1 °F /  0.6 °C 30.31 in /  1026.3 hPa WNW 3.5 mph /  5.6 km/h 3.5 mph /  5.6 km/h 48 % 0.00 in /  0 mm
13:43 52.7 °F /  11.5 °C 34.6 °F /  1.4 °C 30.31 in /  1026.3 hPa NW 5.0 mph /  8 km/h 5.0 mph /  8 km/h 50 % 0.00 in /  0 mm
13:48 52.8 °F /  11.6 °C 33.1 °F /  0.6 °C 30.30 in /  1026 hPa WNW 3.5 mph /  5.6 km/h 3.5 mph /  5.6 km/h 47 % 0.00 in /  0 mm
13:53 52.7 °F /  11.5 °C 32.5 °F /  0.3 °C 30.30 in /  1026 hPa NW 6.9 mph /  11.1 km/h 6.9 mph /  11.1 km/h 46 % 0.00 in /  0 mm
13:58 52.8 °F /  11.6 °C 33.6 °F /  0.9 °C 30.30 in /  1026 hPa NW 5.8 mph /  9.3 km/h 5.8 mph /  9.3 km/h 48 % 0.00 in /  0 mm
14:03 53.0 °F /  11.7 °C 31.6 °F /  -0.2 °C 30.31 in /  1026.3 hPa NW 5.8 mph /  9.3 km/h 5.8 mph /  9.3 km/h 44 % 0.00 in /  0 mm
14:08 52.7 °F /  11.5 °C 31.4 °F /  -0.3 °C 30.31 in /  1026.3 hPa NW 2.3 mph /  3.7 km/h 2.3 mph /  3.7 km/h 44 % 0.00 in /  0 mm
14:13 52.9 °F /  11.6 °C 30.4 °F /  -0.9 °C 30.31 in /  1026.3 hPa NNW 13.8 mph /  22.2 km/h 13.8 mph /  22.2 km/h 42 % 0.00 in /  0 mm
14:18 53.0 °F /  11.7 °C 29.9 °F /  -1.2 °C 30.31 in /  1026.3 hPa WNW 5.8 mph /  9.3 km/h 5.8 mph /  9.3 km/h 41 % 0.00 in /  0 mm
14:23 52.8 °F /  11.6 °C 29.7 °F /  -1.3 °C 30.30 in /  1026 hPa WNW 6.0 mph /  9.7 km/h 6.0 mph /  9.7 km/h 41 % 0.00 in /  0 mm
14:28 52.8 °F /  11.6 °C 30.9 °F /  -0.6 °C 30.30 in /  1026 hPa NW 6.0 mph /  9.7 km/h 6.0 mph /  9.7 km/h 43 % 0.00 in /  0 mm
14:33 53.2 °F /  11.8 °C 31.3 °F /  -0.4 °C 30.30 in /  1026 hPa WNW 5.8 mph /  9.3 km/h 5.8 mph /  9.3 km/h 43 % 0.00 in /  0 mm
14:38 53.1 °F /  11.7 °C 31.2 °F /  -0.4 °C 30.30 in /  1026 hPa NNW 3.5 mph /  5.6 km/h 3.5 mph /  5.6 km/h 43 % 0.00 in /  0 mm
14:43 53.1 °F /  11.7 °C 30.6 °F /  -0.8 °C 30.30 in /  1026 hPa North 3.5 mph /  5.6 km/h 3.5 mph /  5.6 km/h 42 % 0.00 in /  0 mm
14:48 53.2 °F /  11.8 °C 30.7 °F /  -0.7 °C 30.30 in /  1026 hPa NW 5.0 mph /  8 km/h 5.0 mph /  8 km/h 42 % 0.00 in /  0 mm
14:53 52.9 °F /  11.6 °C 29.2 °F /  -1.6 °C 30.31 in /  1026.3 hPa NW 4.6 mph /  7.4 km/h 4.6 mph /  7.4 km/h 40 % 0.00 in /  0 mm
14:58 53.0 °F /  11.7 °C 28.7 °F /  -1.8 °C 30.31 in /  1026.3 hPa West 5.8 mph /  9.3 km/h 5.8 mph /  9.3 km/h 39 % 0.00 in /  0 mm
15:03 53.2 °F /  11.8 °C 28.2 °F /  -2.1 °C 30.31 in /  1026.3 hPa NNW 10.4 mph /  16.7 km/h 10.4 mph /  16.7 km/h 38 % 0.00 in /  0 mm
15:08 53.2 °F /  11.8 °C 26.9 °F /  -2.8 °C 30.31 in /  1026.3 hPa NW 3.5 mph /  5.6 km/h 3.5 mph /  5.6 km/h 36 % 0.00 in /  0 mm
15:13 53.2 °F /  11.8 °C 29.5 °F /  -1.4 °C 30.31 in /  1026.3 hPa NW 5.0 mph /  8 km/h 5.0 mph /  8 km/h 40 % 0.00 in /  0 mm
15:18 53.1 °F /  11.7 °C 28.8 °F /  -1.8 °C 30.31 in /  1026.3 hPa NNW 5.8 mph /  9.3 km/h 5.8 mph /  9.3 km/h 39 % 0.00 in /  0 mm
15:23 53.2 °F /  11.8 °C 28.9 °F /  -1.7 °C 30.30 in /  1026 hPa NNW 4.6 mph /  7.4 km/h 4.6 mph /  7.4 km/h 39 % 0.00 in /  0 mm
15:28 53.2 °F /  11.8 °C 27.6 °F /  -2.4 °C 30.31 in /  1026.3 hPa WNW 5.8 mph /  9.3 km/h 5.8 mph /  9.3 km/h 37 % 0.00 in /  0 mm
15:33 53.1 °F /  11.7 °C 26.8 °F /  -2.9 °C 30.31 in /  1026.3 hPa NNW 4.6 mph /  7.4 km/h 4.6 mph /  7.4 km/h 36 % 0.00 in /  0 mm
15:38 53.1 °F /  11.7 °C 27.5 °F /  -2.5 °C 30.31 in /  1026.3 hPa WNW 5.8 mph /  9.3 km/h 5.8 mph /  9.3 km/h 37 % 0.00 in /  0 mm
15:43 53.1 °F /  11.7 °C 27.5 °F /  -2.5 °C 30.31 in /  1026.3 hPa East 5.8 mph /  9.3 km/h 5.8 mph /  9.3 km/h 37 % 0.00 in /  0 mm
15:48 53.0 °F /  11.7 °C 27.4 °F /  -2.6 °C 30.31 in /  1026.3 hPa WNW 3.5 mph /  5.6 km/h 3.5 mph /  5.6 km/h 37 % 0.00 in /  0 mm
15:53 53.0 °F /  11.7 °C 27.4 °F /  -2.6 °C 30.31 in /  1026.3 hPa NNW 4.0 mph /  6.4 km/h 4.0 mph /  6.4 km/h 37 % 0.00 in /  0 mm
15:58 53.0 °F /  11.7 °C 26.7 °F /  -2.9 °C 30.31 in /  1026.3 hPa NW 5.8 mph /  9.3 km/h 5.8 mph /  9.3 km/h 36 % 0.00 in /  0 mm
16:03 53.0 °F /  11.7 °C 26.7 °F /  -2.9 °C 30.31 in /  1026.3 hPa NNW 5.8 mph /  9.3 km/h 5.8 mph /  9.3 km/h 36 % 0.00 in /  0 mm
16:08 52.8 °F /  11.6 °C 25.9 °F /  -3.4 °C 30.31 in /  1026.3 hPa NW 3.5 mph /  5.6 km/h 3.5 mph /  5.6 km/h 35 % 0.00 in /  0 mm
16:13 52.8 °F /  11.6 °C 26.6 °F /  -3 °C 30.31 in /  1026.3 hPa NW 6.9 mph /  11.1 km/h 6.9 mph /  11.1 km/h 36 % 0.00 in /  0 mm
16:18 52.7 °F /  11.5 °C 25.8 °F /  -3.4 °C 30.31 in /  1026.3 hPa NW 4.6 mph /  7.4 km/h 4.6 mph /  7.4 km/h 35 % 0.00 in /  0 mm
16:23 52.5 °F /  11.4 °C 25.6 °F /  -3.6 °C 30.31 in /  1026.3 hPa NW 3.5 mph /  5.6 km/h 3.5 mph /  5.6 km/h 35 % 0.00 in /  0 mm
16:28 52.3 °F /  11.3 °C 25.4 °F /  -3.7 °C 30.31 in /  1026.3 hPa NNW 3.5 mph /  5.6 km/h 3.5 mph /  5.6 km/h 35 % 0.00 in /  0 mm
16:33 52.4 °F /  11.3 °C 26.2 °F /  -3.2 °C 30.31 in /  1026.3 hPa NW 3.5 mph /  5.6 km/h 3.5 mph /  5.6 km/h 36 % 0.00 in /  0 mm
16:38 52.3 °F /  11.3 °C 26.1 °F /  -3.3 °C 30.31 in /  1026.3 hPa NNW 3.5 mph /  5.6 km/h 3.5 mph /  5.6 km/h 36 % 0.00 in /  0 mm
16:43 52.2 °F /  11.2 °C 26.7 °F /  -2.9 °C 30.31 in /  1026.3 hPa WNW 5.8 mph /  9.3 km/h 5.8 mph /  9.3 km/h 37 % 0.00 in /  0 mm
16:48 52.2 °F /  11.2 °C 26.7 °F /  -2.9 °C 30.31 in /  1026.3 hPa NW 3.5 mph /  5.6 km/h 3.5 mph /  5.6 km/h 37 % 0.00 in /  0 mm
16:53 52.0 °F /  11.1 °C 26.5 °F /  -3.1 °C 30.31 in /  1026.3 hPa NNW 3.5 mph /  5.6 km/h 3.5 mph /  5.6 km/h 37 % 0.00 in /  0 mm
16:58 51.8 °F /  11 °C 26.3 °F /  -3.2 °C 30.32 in /  1026.6 hPa NW 5.8 mph /  9.3 km/h 5.8 mph /  9.3 km/h 37 % 0.00 in /  0 mm
17:03 51.6 °F /  10.9 °C 26.8 °F /  -2.9 °C 30.31 in /  1026.3 hPa NW 3.5 mph /  5.6 km/h 3.5 mph /  5.6 km/h 38 % 0.00 in /  0 mm
17:08 51.4 °F /  10.8 °C 27.2 °F /  -2.7 °C 30.32 in /  1026.6 hPa NW 1.2 mph /  1.9 km/h 1.2 mph /  1.9 km/h 39 % 0.00 in /  0 mm
17:13 51.2 °F /  10.7 °C 27.1 °F /  -2.7 °C 30.32 in /  1026.6 hPa NW 4.0 mph /  6.4 km/h 4.0 mph /  6.4 km/h 39 % 0.00 in /  0 mm
17:19 51.0 °F /  10.6 °C 26.3 °F /  -3.2 °C 30.32 in /  1026.6 hPa WNW 4.0 mph /  6.4 km/h 4.0 mph /  6.4 km/h 38 % 0.00 in /  0 mm
17:24 50.8 °F /  10.4 °C 26.1 °F /  -3.3 °C 30.32 in /  1026.6 hPa NW 3.5 mph /  5.6 km/h 3.5 mph /  5.6 km/h 38 % 0.00 in /  0 mm
17:29 50.5 °F /  10.3 °C 26.4 °F /  -3.1 °C 30.32 in /  1026.6 hPa WNW 2.3 mph /  3.7 km/h 2.3 mph /  3.7 km/h 39 % 0.00 in /  0 mm
17:34 50.0 °F /  10 °C 26.0 °F /  -3.3 °C 30.32 in /  1026.6 hPa NNW 2.3 mph /  3.7 km/h 2.3 mph /  3.7 km/h 39 % 0.00 in /  0 mm
17:39 49.5 °F /  9.7 °C 26.1 °F /  -3.3 °C 30.32 in /  1026.6 hPa Calm     40 % 0.00 in /  0 mm
17:44 49.1 °F /  9.5 °C 26.4 °F /  -3.1 °C 30.33 in /  1027 hPa NW 1.0 mph /  1.6 km/h   41 % 0.00 in /  0 mm
17:48 48.7 °F /  9.3 °C 26.0 °F /  -3.3 °C 30.33 in /  1027 hPa Calm     41 % 0.00 in /  0 mm
17:53 48.3 °F /  9.1 °C 26.2 °F /  -3.2 °C 30.33 in /  1027 hPa WNW 1.2 mph /  1.9 km/h 1.2 mph /  1.9 km/h 42 % 0.00 in /  0 mm
17:59 47.9 °F /  8.8 °C 26.5 °F /  -3.1 °C 30.33 in /  1027 hPa NW 1.2 mph /  1.9 km/h   43 % 0.00 in /  0 mm
18:04 47.5 °F /  8.6 °C 26.6 °F /  -3 °C 30.33 in /  1027 hPa Calm   0.1 mph /  0.2 km/h 44 % 0.00 in /  0 mm
18:09 47.2 °F /  8.4 °C 26.9 °F /  -2.8 °C 30.33 in /  1027 hPa Calm     45 % 0.00 in /  0 mm
18:14 46.9 °F /  8.3 °C 26.6 °F /  -3 °C 30.34 in /  1027.3 hPa Calm     45 % 0.00 in /  0 mm
18:19 46.6 °F /  8.1 °C 26.9 °F /  -2.8 °C 30.34 in /  1027.3 hPa Calm     46 % 0.00 in /  0 mm
18:24 46.3 °F /  7.9 °C 27.2 °F /  -2.7 °C 30.34 in /  1027.3 hPa Calm     47 % 0.00 in /  0 mm
18:29 45.9 °F /  7.7 °C 27.8 °F /  -2.3 °C 30.34 in /  1027.3 hPa Calm     49 % 0.00 in /  0 mm
18:34 45.9 °F /  7.7 °C 27.3 °F /  -2.6 °C 30.35 in /  1027.7 hPa Calm     48 % 0.00 in /  0 mm
18:39 46.3 °F /  7.9 °C 27.2 °F /  -2.7 °C 30.35 in /  1027.7 hPa WNW 1.2 mph /  1.9 km/h 1.2 mph /  1.9 km/h 47 % 0.00 in /  0 mm
18:44 46.3 °F /  7.9 °C 27.7 °F /  -2.4 °C 30.35 in /  1027.7 hPa Calm     48 % 0.00 in /  0 mm
18:49 45.8 °F /  7.7 °C 28.2 °F /  -2.1 °C 30.35 in /  1027.7 hPa Calm     50 % 0.00 in /  0 mm
18:54 45.4 °F /  7.4 °C 27.8 °F /  -2.3 °C 30.35 in /  1027.7 hPa Calm     50 % 0.00 in /  0 mm
18:59 45.6 °F /  7.6 °C 28.5 °F /  -1.9 °C 30.35 in /  1027.7 hPa Calm     51 % 0.00 in /  0 mm
19:04 45.1 °F /  7.3 °C 29.9 °F /  -1.2 °C 30.35 in /  1027.7 hPa Calm     55 % 0.00 in /  0 mm
19:09 44.7 °F /  7.1 °C 29.1 °F /  -1.6 °C 30.36 in /  1028 hPa Calm     54 % 0.00 in /  0 mm
19:14 44.4 °F /  6.9 °C 30.1 °F /  -1.1 °C 30.36 in /  1028 hPa Calm     57 % 0.00 in /  0 mm
19:19 44.3 °F /  6.8 °C 30.0 °F /  -1.1 °C 30.36 in /  1028 hPa Calm     57 % 0.00 in /  0 mm
19:24 44.3 °F /  6.8 °C 30.0 °F /  -1.1 °C 30.36 in /  1028 hPa WNW 1.2 mph /  1.9 km/h 1.2 mph /  1.9 km/h 57 % 0.00 in /  0 mm
19:29 43.9 °F /  6.6 °C 30.1 °F /  -1.1 °C 30.36 in /  1028 hPa Calm     58 % 0.00 in /  0 mm
19:34 43.9 °F /  6.6 °C 30.5 °F /  -0.8 °C 30.36 in /  1028 hPa Calm     59 % 0.00 in /  0 mm
19:39 44.0 °F /  6.7 °C 31.0 °F /  -0.6 °C 30.37 in /  1028.3 hPa Calm     60 % 0.00 in /  0 mm
19:44 43.9 °F /  6.6 °C 31.3 °F /  -0.4 °C 30.37 in /  1028.3 hPa Calm     61 % 0.00 in /  0 mm
19:49 43.8 °F /  6.6 °C 31.6 °F /  -0.2 °C 30.37 in /  1028.3 hPa Calm     62 % 0.00 in /  0 mm
19:54 43.3 °F /  6.3 °C 31.9 °F /  -0.1 °C 30.37 in /  1028.3 hPa Calm     64 % 0.00 in /  0 mm
19:59 42.4 °F /  5.8 °C 32.2 °F /  0.1 °C 30.37 in /  1028.3 hPa Calm     67 % 0.00 in /  0 mm
20:04 41.4 °F /  5.2 °C 32.0 °F /  0 °C 30.37 in /  1028.3 hPa Calm     69 % 0.00 in /  0 mm
20:09 41.0 °F /  5 °C 31.6 °F /  -0.2 °C 30.37 in /  1028.3 hPa Calm     69 % 0.00 in /  0 mm
20:14 41.1 °F /  5.1 °C 31.7 °F /  -0.2 °C 30.37 in /  1028.3 hPa Calm     69 % 0.00 in /  0 mm
20:19 41.3 °F /  5.2 °C 31.5 °F /  -0.3 °C 30.38 in /  1028.7 hPa Calm     68 % 0.00 in /  0 mm
20:24 41.2 °F /  5.1 °C 31.4 °F /  -0.3 °C 30.38 in /  1028.7 hPa Calm     68 % 0.00 in /  0 mm
20:29 41.2 °F /  5.1 °C 31.1 °F /  -0.5 °C 30.38 in /  1028.7 hPa Calm     67 % 0.00 in /  0 mm
20:34 41.1 °F /  5.1 °C 30.6 °F /  -0.8 °C 30.38 in /  1028.7 hPa Calm     66 % 0.00 in /  0 mm
20:39 41.0 °F /  5 °C 30.9 °F /  -0.6 °C 30.38 in /  1028.7 hPa Calm     67 % 0.00 in /  0 mm
20:44 40.6 °F /  4.8 °C 30.5 °F /  -0.8 °C 30.39 in /  1029 hPa Calm     67 % 0.00 in /  0 mm
20:49 40.1 °F /  4.5 °C 30.7 °F /  -0.7 °C 30.39 in /  1029 hPa Calm     69 % 0.00 in /  0 mm
20:54 39.8 °F /  4.3 °C 30.8 °F /  -0.7 °C 30.39 in /  1029 hPa Calm     70 % 0.00 in /  0 mm
20:59 39.4 °F /  4.1 °C 30.8 °F /  -0.7 °C 30.39 in /  1029 hPa Calm     71 % 0.00 in /  0 mm
21:04 39.1 °F /  3.9 °C 31.2 °F /  -0.4 °C 30.39 in /  1029 hPa Calm     73 % 0.00 in /  0 mm
21:09 38.8 °F /  3.8 °C 31.2 °F /  -0.4 °C 30.39 in /  1029 hPa Calm     74 % 0.00 in /  0 mm
21:14 38.6 °F /  3.7 °C 31.4 °F /  -0.3 °C 30.39 in /  1029 hPa Calm     75 % 0.00 in /  0 mm
21:19 38.5 °F /  3.6 °C 31.3 °F /  -0.4 °C 30.39 in /  1029 hPa Calm     75 % 0.00 in /  0 mm
21:24 38.4 °F /  3.6 °C 30.8 °F /  -0.7 °C 30.39 in /  1029 hPa Calm     74 % 0.00 in /  0 mm
21:29 38.5 °F /  3.6 °C 30.6 °F /  -0.8 °C 30.40 in /  1029.3 hPa Calm     73 % 0.00 in /  0 mm
21:34 38.7 °F /  3.7 °C 30.8 °F /  -0.7 °C 30.40 in /  1029.3 hPa Calm     73 % 0.00 in /  0 mm
21:39 38.4 °F /  3.6 °C 30.5 °F /  -0.8 °C 30.40 in /  1029.3 hPa Calm     73 % 0.00 in /  0 mm
21:44 38.2 °F /  3.4 °C 30.6 °F /  -0.8 °C 30.40 in /  1029.3 hPa Calm     74 % 0.00 in /  0 mm
21:49 38.2 °F /  3.4 °C 30.6 °F /  -0.8 °C 30.40 in /  1029.3 hPa Calm     74 % 0.00 in /  0 mm
21:54 38.1 °F /  3.4 °C 30.2 °F /  -1 °C 30.40 in /  1029.3 hPa Calm     73 % 0.00 in /  0 mm
21:59 37.9 °F /  3.3 °C 30.0 °F /  -1.1 °C 30.39 in /  1029 hPa Calm     73 % 0.00 in /  0 mm
22:04 37.7 °F /  3.2 °C 29.8 °F /  -1.2 °C 30.39 in /  1029 hPa Calm     73 % 0.00 in /  0 mm
22:09 37.7 °F /  3.2 °C 30.2 °F /  -1 °C 30.40 in /  1029.3 hPa Calm     74 % 0.00 in /  0 mm
22:14 37.3 °F /  2.9 °C 30.7 °F /  -0.7 °C 30.40 in /  1029.3 hPa Calm     77 % 0.00 in /  0 mm
22:19 36.3 °F /  2.4 °C 30.1 °F /  -1.1 °C 30.40 in /  1029.3 hPa Calm     78 % 0.00 in /  0 mm
22:24 35.9 °F /  2.2 °C 30.0 °F /  -1.1 °C 30.40 in /  1029.3 hPa Calm     79 % 0.00 in /  0 mm
22:29 35.7 °F /  2.1 °C 29.8 °F /  -1.2 °C 30.40 in /  1029.3 hPa Calm     79 % 0.00 in /  0 mm
22:34 35.5 °F /  1.9 °C 29.9 °F /  -1.2 °C 30.40 in /  1029.3 hPa Calm     80 % 0.00 in /  0 mm
22:39 35.1 °F /  1.7 °C 29.6 °F /  -1.3 °C 30.40 in /  1029.3 hPa Calm     80 % 0.00 in /  0 mm
22:44 35.0 °F /  1.7 °C 29.5 °F /  -1.4 °C 30.40 in /  1029.3 hPa Calm     80 % 0.00 in /  0 mm
22:49 34.9 °F /  1.6 °C 29.4 °F /  -1.4 °C 30.40 in /  1029.3 hPa NNW 1.2 mph /  1.9 km/h   80 % 0.00 in /  0 mm
22:54 34.7 °F /  1.5 °C 29.2 °F /  -1.6 °C 30.40 in /  1029.3 hPa Calm     80 % 0.00 in /  0 mm
22:59 34.6 °F /  1.4 °C 29.1 °F /  -1.6 °C 30.40 in /  1029.3 hPa Calm     80 % 0.00 in /  0 mm
23:04 34.5 °F /  1.4 °C 29.0 °F /  -1.7 °C 30.40 in /  1029.3 hPa Calm     80 % 0.00 in /  0 mm
23:09 34.5 °F /  1.4 °C 29.0 °F /  -1.7 °C 30.40 in /  1029.3 hPa Calm     80 % 0.00 in /  0 mm
23:14 34.5 °F /  1.4 °C 29.3 °F /  -1.5 °C 30.40 in /  1029.3 hPa Calm     81 % 0.00 in /  0 mm
23:19 34.4 °F /  1.3 °C 29.2 °F /  -1.6 °C 30.40 in /  1029.3 hPa Calm     81 % 0.00 in /  0 mm
23:24 34.1 °F /  1.2 °C 29.2 °F /  -1.6 °C 30.40 in /  1029.3 hPa Calm     82 % 0.00 in /  0 mm
23:29 33.9 °F /  1.1 °C 29.3 °F /  -1.5 °C 30.40 in /  1029.3 hPa Calm     83 % 0.00 in /  0 mm
23:34 33.8 °F /  1 °C 29.5 °F /  -1.4 °C 30.40 in /  1029.3 hPa Calm     84 % 0.00 in /  0 mm
23:40 33.7 °F /  0.9 °C 29.1 °F /  -1.6 °C 30.40 in /  1029.3 hPa Calm     83 % 0.00 in /  0 mm
23:45 33.6 °F /  0.9 °C 29.3 °F /  -1.5 °C 30.41 in /  1029.7 hPa Calm     84 % 0.00 in /  0 mm
23:50 33.4 °F /  0.8 °C 28.8 °F /  -1.8 °C 30.41 in /  1029.7 hPa Calm     83 % 0.00 in /  0 mm
23:55 33.4 °F /  0.8 °C 29.1 °F /  -1.6 °C 30.41 in /  1029.7 hPa Calm     84 % 0.00 in /  0 mm
Park Place, Exeter, Tulare County, California, USA
Compliments of Weather Underground - 2.75 mb